This is the latest recevied weather packets stored in our database for station/object GW7287. If no packets are shown the sender has not sent any weather packets the latest 10 day(s).
| Time | Temp. | Humidity | Pressure | Rain* | Wind** | Luminosity | Snow |
|---|---|---|---|---|---|---|---|
| 1778207522 | 10.56° C | 76% | 924.8 hPa | - | - | - | - |
| 1778206153 | 11.11° C | 73% | 925.4 hPa | - | - | - | - |
| 1778197867 | 12.22° C | 72% | 926.1 hPa | - | - | - | - |
| 1778194863 | 12.78° C | 71% | 926.3 hPa | - | - | - | - |
| 1778194581 | 12.78° C | 71% | 926.3 hPa | - | - | - | - |
| 1778191093 | 12.22° C | 72% | 926 hPa | - | - | - | - |
| 1778190256 | 12.22° C | 72% | 926 hPa | - | - | - | - |
| 1778189942 | 12.22° C | 72% | 926 hPa | - | - | - | - |
| 1778189847 | 12.22° C | 72% | 926 hPa | - | - | - | - |
| 1778189474 | 12.22° C | 72% | 926 hPa | - | - | - | - |
| 1778187504 | 12.22° C | 72% | 925.8 hPa | - | - | - | - |
| 1778184363 | 13.89° C | 61% | 925.2 hPa | - | - | - | - |
| 1778182054 | 16.67° C | 51% | 924.4 hPa | - | - | - | - |
| 1778177645 | 17.78° C | 45% | 924.3 hPa | - | - | - | - |
| 1778176282 | 17.78° C | 45% | 924.3 hPa | - | - | - | - |
| 1778169605 | 17.78° C | 40% | 924.3 hPa | - | - | - | - |
| 1778169278 | 17.78° C | 40% | 924.3 hPa | - | - | - | - |
| 1778161074 | 18.89° C | 40% | 924.9 hPa | - | - | - | - |
| 1778160886 | 18.89° C | 40% | 924.9 hPa | - | - | - | - |
| 1778160606 | 18.89° C | 40% | 924.9 hPa | - | - | - | - |
| 1778160023 | 18.33° C | 47% | 924.7 hPa | - | - | - | - |
| 1778152704 | 17.78° C | 49% | 925.6 hPa | - | - | - | - |
| 1778151747 | 17.78° C | 49% | 925.6 hPa | - | - | - | - |
| 1778151198 | 17.78° C | 49% | 925.6 hPa | - | - | - | - |
| 1778141882 | 8.89° C | 87% | 925.6 hPa | - | - | - | - |
* Rain since midnight (hover to see other rain measurements)
** Current wind speed in m/s (hover to see current wind gust speed)